createdAt,value
2017-10-24T00:00:22.731Z,95.70
2017-10-24T00:01:27.147Z,95.70
2017-10-24T00:02:31.168Z,95.80
2017-10-24T00:03:36.071Z,95.90
2017-10-24T00:04:40.201Z,96.10
2017-10-24T00:05:45.418Z,95.80
2017-10-24T00:06:49.531Z,95.80
2017-10-24T00:07:55.269Z,96.00
2017-10-24T00:09:00.178Z,96.00
2017-10-24T00:10:04.803Z,95.90
2017-10-24T00:11:09.268Z,95.90
2017-10-24T00:12:13.919Z,95.90
2017-10-24T00:13:18.756Z,95.80
2017-10-24T00:14:24.624Z,95.80
2017-10-24T00:15:28.675Z,95.80
2017-10-24T00:16:32.975Z,95.90
2017-10-24T00:17:37.135Z,95.90
2017-10-24T00:18:42.097Z,95.90
2017-10-24T00:19:47.640Z,95.80
2017-10-24T00:20:51.725Z,95.80
2017-10-24T00:21:56.490Z,95.80
2017-10-24T00:23:01.333Z,95.80
2017-10-24T00:24:05.875Z,95.70
2017-10-24T00:25:10.116Z,95.70
2017-10-24T00:26:14.556Z,95.70
2017-10-24T00:27:19.178Z,95.70
2017-10-24T00:28:23.453Z,95.70
2017-10-24T00:29:28.399Z,95.70
2017-10-24T00:30:32.579Z,95.70
2017-10-24T00:31:37.261Z,95.70
2017-10-24T00:32:41.366Z,95.60
2017-10-24T00:33:45.766Z,95.60
2017-10-24T00:34:50.045Z,95.60
2017-10-24T00:35:54.147Z,95.70
2017-10-24T00:36:58.538Z,95.70
2017-10-24T00:38:04.216Z,95.70
2017-10-24T00:39:09.053Z,95.60
2017-10-24T00:40:13.052Z,95.60
2017-10-24T00:41:17.911Z,95.60
2017-10-24T00:42:22.758Z,95.60
2017-10-24T00:43:32.221Z,95.60
2017-10-24T00:44:37.916Z,95.60
2017-10-24T00:45:42.717Z,95.60
2017-10-24T00:46:47.788Z,95.50
2017-10-24T00:47:51.787Z,95.50
2017-10-24T00:48:56.058Z,95.60
2017-10-24T00:50:00.757Z,95.50
2017-10-24T00:51:05.252Z,95.50
2017-10-24T00:52:10.250Z,95.40
2017-10-24T00:53:14.575Z,95.40
2017-10-24T00:54:18.771Z,95.50
2017-10-24T00:55:22.987Z,95.50
2017-10-24T00:56:27.197Z,95.50
2017-10-24T00:57:31.874Z,95.40
2017-10-24T00:58:36.142Z,95.40
2017-10-24T00:59:40.143Z,95.40
2017-10-24T01:00:45.423Z,95.30
2017-10-24T01:01:49.739Z,95.30
2017-10-24T01:02:54.209Z,95.20
2017-10-24T01:03:58.354Z,95.20
2017-10-24T01:05:03.035Z,95.20
2017-10-24T01:06:07.188Z,95.20
2017-10-24T01:07:11.638Z,95.20
2017-10-24T01:08:16.040Z,95.20
2017-10-24T01:09:21.037Z,95.20
2017-10-24T01:10:26.097Z,95.10
2017-10-24T01:11:30.271Z,95.10
2017-10-24T01:12:34.747Z,95.10
2017-10-24T01:13:39.249Z,95.10
2017-10-24T01:14:43.610Z,95.20
2017-10-24T01:15:47.653Z,95.20
2017-10-24T01:16:51.847Z,95.20
2017-10-24T01:17:55.905Z,95.30
2017-10-24T01:18:59.966Z,95.30
2017-10-24T01:20:04.504Z,95.30
2017-10-24T01:21:08.578Z,95.30
2017-10-24T01:22:13.271Z,95.30
2017-10-24T01:23:17.434Z,95.10
2017-10-24T01:24:21.930Z,95.10
2017-10-24T01:25:26.378Z,95.20
2017-10-24T01:26:31.586Z,95.30
2017-10-24T01:27:36.525Z,95.40
2017-10-24T01:28:40.686Z,95.40
2017-10-24T01:29:45.162Z,95.40
2017-10-24T01:30:49.513Z,95.40
2017-10-24T01:31:54.577Z,95.40
2017-10-24T01:32:59.517Z,95.40
2017-10-24T01:34:04.138Z,95.40
2017-10-24T01:35:08.412Z,95.30
2017-10-24T01:36:14.326Z,95.20
2017-10-24T01:37:18.699Z,95.20
2017-10-24T01:38:23.202Z,95.10
2017-10-24T01:39:28.617Z,95.10
2017-10-24T01:40:33.377Z,95.10
2017-10-24T01:41:37.917Z,95.10
2017-10-24T01:42:42.349Z,95.00
2017-10-24T01:43:46.626Z,95.00
2017-10-24T01:44:51.245Z,95.00
2017-10-24T01:45:56.211Z,94.90
2017-10-24T01:47:01.436Z,94.90
2017-10-24T01:48:06.418Z,94.90
2017-10-24T01:49:10.798Z,94.90
2017-10-24T01:50:15.561Z,94.90
2017-10-24T01:51:19.590Z,94.90
2017-10-24T01:52:24.389Z,94.80
2017-10-24T01:53:28.495Z,94.80
2017-10-24T01:54:33.846Z,94.80
2017-10-24T01:55:38.463Z,94.80
2017-10-24T01:56:42.846Z,94.80
2017-10-24T01:57:46.950Z,94.80
2017-10-24T01:58:52.366Z,94.90
2017-10-24T01:59:56.541Z,94.90
2017-10-24T02:01:00.781Z,95.00
2017-10-24T02:02:05.989Z,94.70
2017-10-24T02:03:10.218Z,94.60
2017-10-24T02:04:15.197Z,94.70
2017-10-24T02:05:19.322Z,94.70
2017-10-24T02:06:23.783Z,94.70
2017-10-24T02:07:27.919Z,94.70
2017-10-24T02:08:32.119Z,94.70
2017-10-24T02:09:36.595Z,94.70
2017-10-24T02:10:41.582Z,94.70
2017-10-24T02:11:46.156Z,94.70
2017-10-24T02:12:50.633Z,94.60
2017-10-24T02:13:55.923Z,94.70
2017-10-24T02:15:00.390Z,94.70
2017-10-24T02:16:04.457Z,94.70
2017-10-24T02:17:08.736Z,94.70
2017-10-24T02:18:13.258Z,94.70
2017-10-24T02:19:18.050Z,94.70
2017-10-24T02:20:22.058Z,94.70
2017-10-24T02:21:26.171Z,94.70
2017-10-24T02:22:30.423Z,94.70
2017-10-24T02:23:35.439Z,94.70
2017-10-24T02:24:40.558Z,94.70
2017-10-24T02:25:44.784Z,94.70
2017-10-24T02:26:50.048Z,94.60
2017-10-24T02:27:54.201Z,94.60
2017-10-24T02:28:58.342Z,94.60
2017-10-24T02:30:02.483Z,94.70
2017-10-24T02:31:07.251Z,94.60
2017-10-24T02:32:11.421Z,94.80
2017-10-24T02:33:15.630Z,94.80
2017-10-24T02:34:19.966Z,94.80
2017-10-24T02:35:24.302Z,94.80
2017-10-24T02:36:28.820Z,94.70
2017-10-24T02:37:33.586Z,94.70
2017-10-24T02:38:38.396Z,94.50
2017-10-24T02:39:42.393Z,94.50
2017-10-24T02:40:46.472Z,94.60
2017-10-24T02:41:50.429Z,94.60
2017-10-24T02:42:54.450Z,94.70
2017-10-24T02:43:58.496Z,94.60
2017-10-24T02:45:03.267Z,94.70
2017-10-24T02:46:07.243Z,94.70
2017-10-24T02:47:11.315Z,94.70
2017-10-24T02:48:16.091Z,94.80
2017-10-24T02:49:20.130Z,94.80
2017-10-24T02:50:24.173Z,94.90
2017-10-24T02:51:28.170Z,94.80
2017-10-24T02:52:32.194Z,94.80
2017-10-24T02:53:36.186Z,94.70
2017-10-24T02:54:40.221Z,94.70
2017-10-24T02:55:44.766Z,94.80
2017-10-24T02:56:49.847Z,94.90
2017-10-24T02:57:53.890Z,94.80
2017-10-24T02:58:58.040Z,94.90
2017-10-24T03:00:02.157Z,95.00
2017-10-24T03:01:06.237Z,95.00
2017-10-24T03:02:10.259Z,95.10
2017-10-24T03:03:14.472Z,95.00
2017-10-24T03:04:18.565Z,95.10
2017-10-24T03:05:22.652Z,95.10
2017-10-24T03:06:31.717Z,95.20
2017-10-24T03:07:36.992Z,95.20
2017-10-24T03:08:40.961Z,95.20
2017-10-24T03:09:45.753Z,95.40
2017-10-24T03:10:50.620Z,95.40
2017-10-24T03:11:54.613Z,95.40
2017-10-24T03:12:58.594Z,95.40
2017-10-24T03:14:03.742Z,95.40
2017-10-24T03:15:07.769Z,95.40
2017-10-24T03:16:11.949Z,95.40
2017-10-24T03:17:16.217Z,95.40
2017-10-24T03:18:20.413Z,95.50
2017-10-24T03:19:24.660Z,95.50
2017-10-24T03:20:28.821Z,95.50
2017-10-24T03:21:33.020Z,95.50
2017-10-24T03:22:37.139Z,95.60
2017-10-24T03:23:41.328Z,95.60
2017-10-24T03:24:45.535Z,95.70
2017-10-24T03:25:49.606Z,95.70
2017-10-24T03:26:53.726Z,95.70
2017-10-24T03:27:57.811Z,95.80
2017-10-24T03:29:01.936Z,95.80
2017-10-24T03:30:05.954Z,95.70
2017-10-24T03:31:10.012Z,95.70
2017-10-24T03:32:14.356Z,95.80
2017-10-24T03:33:18.997Z,95.70
2017-10-24T03:34:23.937Z,95.80
2017-10-24T03:35:28.112Z,95.80
2017-10-24T03:36:33.148Z,95.70
2017-10-24T03:37:38.040Z,95.70
2017-10-24T03:38:42.270Z,95.70
2017-10-24T03:39:47.442Z,95.70
2017-10-24T03:40:51.474Z,95.70
2017-10-24T03:41:55.498Z,95.60
2017-10-24T03:43:00.263Z,95.50
2017-10-24T03:44:04.335Z,95.50
2017-10-24T03:45:08.362Z,95.50
2017-10-24T03:46:12.767Z,95.80
2017-10-24T03:47:16.740Z,95.60
2017-10-24T03:48:20.780Z,95.50
2017-10-24T03:49:24.984Z,95.50
2017-10-24T03:50:29.826Z,95.70
2017-10-24T03:51:33.979Z,95.70
2017-10-24T03:52:38.410Z,95.70
2017-10-24T03:53:42.625Z,95.80
2017-10-24T03:54:46.946Z,95.90
2017-10-24T03:55:51.117Z,95.90
2017-10-24T03:56:55.399Z,96.00
2017-10-24T03:57:59.841Z,95.90
2017-10-24T03:59:04.084Z,95.90
2017-10-24T04:00:08.380Z,96.00
2017-10-24T04:01:12.385Z,96.00
2017-10-24T04:02:16.525Z,96.00
2017-10-24T04:03:20.497Z,96.00
2017-10-24T04:04:24.955Z,96.00
2017-10-24T04:05:28.977Z,95.90
2017-10-24T04:06:32.967Z,95.90
2017-10-24T04:07:37.102Z,95.90
2017-10-24T04:08:42.917Z,96.10
2017-10-24T04:09:46.916Z,96.00
2017-10-24T04:10:51.602Z,96.00
2017-10-24T04:11:55.828Z,95.90
2017-10-24T04:12:59.982Z,95.90
2017-10-24T04:14:04.919Z,96.10
2017-10-24T04:15:09.872Z,95.90
2017-10-24T04:16:14.377Z,95.90
2017-10-24T04:17:18.625Z,95.80
2017-10-24T04:18:22.829Z,95.70
2017-10-24T04:19:27.037Z,95.70
2017-10-24T04:20:31.266Z,95.70
2017-10-24T04:21:36.256Z,95.70
2017-10-24T04:22:40.828Z,95.70
2017-10-24T04:23:45.255Z,95.70
2017-10-24T04:24:49.470Z,95.60
2017-10-24T04:25:53.670Z,95.50
2017-10-24T04:26:57.854Z,95.50
2017-10-24T04:28:01.886Z,95.80
2017-10-24T04:29:06.299Z,95.50
2017-10-24T04:30:14.203Z,95.60
2017-10-24T04:31:26.858Z,95.60
2017-10-24T04:32:30.898Z,95.60
2017-10-24T04:33:34.923Z,95.50
2017-10-24T04:34:38.991Z,95.80
2017-10-24T04:35:43.425Z,95.40
2017-10-24T04:36:48.275Z,95.30
2017-10-24T04:37:53.122Z,95.30
2017-10-24T04:38:57.266Z,95.30
2017-10-24T04:40:01.299Z,95.30
2017-10-24T04:41:06.788Z,95.30
2017-10-24T04:42:21.502Z,95.30
2017-10-24T04:43:25.519Z,95.30
2017-10-24T04:44:29.469Z,95.30
2017-10-24T04:45:34.317Z,95.20
2017-10-24T04:46:38.536Z,95.20
2017-10-24T04:47:42.958Z,95.10
2017-10-24T04:48:47.138Z,95.10
2017-10-24T04:49:51.370Z,95.10
2017-10-24T04:50:55.497Z,95.20
2017-10-24T04:51:59.619Z,95.20
2017-10-24T04:53:04.496Z,95.20
2017-10-24T04:54:08.702Z,95.20
2017-10-24T04:55:12.916Z,95.20
2017-10-24T04:57:19.684Z,95.10
2017-10-24T04:58:23.821Z,95.10
2017-10-24T04:59:28.730Z,95.20
2017-10-24T05:00:33.697Z,95.20
2017-10-24T05:01:37.856Z,95.20
2017-10-24T05:02:42.002Z,95.20
2017-10-24T05:03:46.173Z,95.10
2017-10-24T05:04:50.898Z,95.00
2017-10-24T05:05:55.608Z,95.00
2017-10-24T05:07:00.350Z,95.00
2017-10-24T05:08:04.373Z,95.00
2017-10-24T05:09:08.371Z,95.00
2017-10-24T05:10:12.442Z,94.90
2017-10-24T05:11:17.181Z,95.30
2017-10-24T05:12:21.225Z,95.00
2017-10-24T05:13:25.405Z,95.00
2017-10-24T05:14:29.565Z,95.00
2017-10-24T05:15:34.464Z,95.00
2017-10-24T05:16:38.690Z,95.00
2017-10-24T05:17:43.122Z,95.10
2017-10-24T05:18:47.309Z,95.10
2017-10-24T05:19:52.278Z,95.10
2017-10-24T05:20:56.474Z,95.10
2017-10-24T05:22:00.649Z,95.00
2017-10-24T05:23:04.655Z,95.00
2017-10-24T05:24:08.973Z,95.00
2017-10-24T05:25:12.950Z,95.00
2017-10-24T05:26:16.945Z,95.00
2017-10-24T05:27:21.696Z,95.00
2017-10-24T05:28:25.793Z,95.00
2017-10-24T05:29:29.898Z,95.00
2017-10-24T05:30:33.894Z,94.90
2017-10-24T05:31:38.034Z,95.00
2017-10-24T05:32:42.265Z,94.90
2017-10-24T05:33:47.264Z,95.00
2017-10-24T05:34:52.245Z,95.00
2017-10-24T05:35:58.928Z,95.00
2017-10-24T05:37:06.340Z,95.00
2017-10-24T05:38:11.793Z,95.00
2017-10-24T05:39:20.271Z,94.90
2017-10-24T05:40:25.799Z,94.90
2017-10-24T05:41:30.706Z,94.90
2017-10-24T05:42:35.741Z,95.00
2017-10-24T05:43:49.926Z,94.90
2017-10-24T05:44:55.951Z,94.90
2017-10-24T05:46:02.983Z,94.90
2017-10-24T05:47:08.279Z,94.90
2017-10-24T05:48:14.258Z,94.90
2017-10-24T05:49:19.333Z,94.90
2017-10-24T05:50:25.183Z,94.80
2017-10-24T05:51:30.667Z,94.90
2017-10-24T05:52:34.638Z,94.90
2017-10-24T05:53:40.820Z,94.90
2017-10-24T05:54:47.249Z,94.90
2017-10-24T05:55:53.770Z,94.90
2017-10-24T05:56:59.053Z,94.80
2017-10-24T05:58:03.380Z,94.90
2017-10-24T05:59:10.360Z,94.90
2017-10-24T06:00:15.622Z,94.90
2017-10-24T06:01:21.485Z,94.90
2017-10-24T06:02:25.798Z,94.90
2017-10-24T06:03:30.013Z,94.90
2017-10-24T06:04:34.143Z,94.90
2017-10-24T06:05:38.870Z,94.90
2017-10-24T06:06:44.897Z,94.90
2017-10-24T06:07:49.125Z,94.90
2017-10-24T06:08:54.091Z,94.90
2017-10-24T06:10:00.264Z,94.90
2017-10-24T06:11:04.432Z,94.90
2017-10-24T06:12:08.572Z,94.90
2017-10-24T06:13:12.803Z,94.90
2017-10-24T06:14:17.053Z,94.90
2017-10-24T06:15:21.202Z,94.90
2017-10-24T06:16:25.167Z,94.90
2017-10-24T06:17:29.246Z,94.90
2017-10-24T06:18:34.048Z,94.80
2017-10-24T06:19:40.949Z,94.80
2017-10-24T06:20:48.985Z,94.80
2017-10-24T06:21:53.035Z,94.80
2017-10-24T06:22:57.061Z,94.80
2017-10-24T06:24:01.086Z,94.80
2017-10-24T06:25:05.132Z,94.80
2017-10-24T06:26:09.333Z,94.80
2017-10-24T06:27:15.374Z,94.90
2017-10-24T06:28:21.882Z,94.80
2017-10-24T06:29:27.608Z,94.80
2017-10-24T06:30:34.125Z,94.80
2017-10-24T06:31:39.025Z,94.90
2017-10-24T06:32:43.361Z,94.90
2017-10-24T06:33:48.371Z,95.00
2017-10-24T06:34:52.483Z,95.00
2017-10-24T06:35:57.399Z,95.00
2017-10-24T06:37:01.533Z,95.00
2017-10-24T06:38:06.092Z,95.00
2017-10-24T06:39:10.225Z,95.00
2017-10-24T06:40:15.221Z,95.00
2017-10-24T06:41:19.423Z,95.00
2017-10-24T06:42:23.586Z,95.00
2017-10-24T06:43:27.646Z,95.00
2017-10-24T06:44:33.107Z,94.90
2017-10-24T06:45:37.899Z,94.80
2017-10-24T06:46:42.798Z,94.80
2017-10-24T06:47:46.861Z,94.80
2017-10-24T06:48:50.848Z,94.80
2017-10-24T06:49:55.611Z,94.80
2017-10-24T06:51:00.025Z,94.80
2017-10-24T06:52:04.049Z,94.80
2017-10-24T06:53:09.040Z,94.70
2017-10-24T06:54:13.075Z,94.70
2017-10-24T06:55:17.851Z,94.70
2017-10-24T06:56:21.836Z,94.70
2017-10-24T06:57:25.874Z,94.70
2017-10-24T06:58:29.883Z,94.70
2017-10-24T06:59:34.021Z,94.60
2017-10-24T07:00:38.821Z,94.70
2017-10-24T07:01:44.426Z,94.60
2017-10-24T07:02:48.993Z,94.60
2017-10-24T07:03:53.290Z,94.50
2017-10-24T07:05:01.454Z,94.50
2017-10-24T07:06:06.660Z,94.50
2017-10-24T07:07:12.356Z,94.60
2017-10-24T07:08:19.311Z,94.60
2017-10-24T07:09:24.964Z,94.60
2017-10-24T07:10:30.292Z,94.60
2017-10-24T07:11:37.828Z,94.60
2017-10-24T07:12:43.185Z,94.60
2017-10-24T07:13:48.733Z,94.50
2017-10-24T07:14:53.569Z,94.40
2017-10-24T07:16:00.322Z,94.50
2017-10-24T07:17:05.444Z,94.50
2017-10-24T07:18:11.228Z,94.60
2017-10-24T07:19:17.023Z,94.60
2017-10-24T07:20:22.513Z,94.60
2017-10-24T07:21:29.346Z,94.80
2017-10-24T07:22:34.753Z,95.00
2017-10-24T07:23:40.686Z,95.10
2017-10-24T07:24:46.294Z,95.20
2017-10-24T07:25:53.586Z,95.20
2017-10-24T07:26:58.318Z,95.20
2017-10-24T07:28:02.577Z,95.20
2017-10-24T07:29:07.299Z,95.20
2017-10-24T07:30:13.244Z,95.30
2017-10-24T07:31:17.467Z,95.20
2017-10-24T07:32:22.583Z,95.20
2017-10-24T07:33:27.391Z,95.20
2017-10-24T07:34:32.324Z,95.20
2017-10-24T07:35:37.946Z,95.50
2017-10-24T07:36:44.232Z,95.10
2017-10-24T07:37:48.374Z,95.00
2017-10-24T07:38:53.532Z,94.90
2017-10-24T07:39:58.959Z,94.90
2017-10-24T07:41:03.081Z,94.90
2017-10-24T07:42:07.149Z,95.00
2017-10-24T07:43:11.946Z,94.90
2017-10-24T07:44:16.063Z,94.90
2017-10-24T07:45:20.994Z,94.90
2017-10-24T07:46:25.746Z,95.00
2017-10-24T07:47:29.741Z,95.00
2017-10-24T07:48:33.693Z,95.00
2017-10-24T07:49:37.713Z,95.10
2017-10-24T07:50:42.533Z,95.10
2017-10-24T07:51:47.273Z,95.10
2017-10-24T07:52:51.260Z,95.10
2017-10-24T07:53:55.294Z,95.10
2017-10-24T07:54:59.324Z,95.10
2017-10-24T07:56:03.513Z,95.10
2017-10-24T07:57:07.505Z,95.00
2017-10-24T07:58:11.522Z,95.10
2017-10-24T07:59:15.550Z,94.90
2017-10-24T08:00:20.391Z,94.70
2017-10-24T08:01:24.387Z,94.70
2017-10-24T08:02:28.462Z,94.60
2017-10-24T08:03:33.223Z,94.80
2017-10-24T08:04:37.280Z,94.50
2017-10-24T08:05:42.262Z,94.50
2017-10-24T08:06:46.393Z,94.40
2017-10-24T08:07:50.858Z,94.40
2017-10-24T08:08:55.026Z,94.30
2017-10-24T08:09:59.984Z,94.40
2017-10-24T08:11:04.406Z,94.40
2017-10-24T08:12:08.544Z,94.30
2017-10-24T08:13:12.712Z,94.20
2017-10-24T08:14:16.966Z,94.20
2017-10-24T08:15:21.915Z,94.20
2017-10-24T08:16:26.147Z,94.20
2017-10-24T08:17:30.354Z,94.50
2017-10-24T08:18:34.486Z,94.10
2017-10-24T08:19:38.885Z,94.00
2017-10-24T08:20:43.070Z,94.10
2017-10-24T08:21:47.213Z,94.20
2017-10-24T08:22:52.172Z,94.20
2017-10-24T08:23:56.324Z,94.20
2017-10-24T08:25:00.333Z,94.30
2017-10-24T08:26:04.645Z,93.70
2017-10-24T08:27:09.415Z,93.50
2017-10-24T08:28:13.506Z,93.50
2017-10-24T08:29:17.558Z,93.40
2017-10-24T08:30:21.729Z,93.30
2017-10-24T08:31:25.870Z,93.30
2017-10-24T08:32:30.069Z,93.00
2017-10-24T08:33:34.278Z,93.00
2017-10-24T08:34:39.252Z,92.90
2017-10-24T08:35:43.444Z,92.90
2017-10-24T08:36:47.650Z,93.20
2017-10-24T08:37:51.782Z,92.90
2017-10-24T08:38:55.970Z,92.90
2017-10-24T08:40:00.226Z,92.70
2017-10-24T08:41:04.399Z,92.80
2017-10-24T08:42:08.519Z,92.40
2017-10-24T08:43:12.717Z,92.40
2017-10-24T08:44:16.957Z,92.50
2017-10-24T08:45:21.988Z,92.10
2017-10-24T08:46:26.950Z,91.90
2017-10-24T08:47:31.163Z,91.90
2017-10-24T08:48:35.611Z,91.90
2017-10-24T08:49:40.583Z,91.90
2017-10-24T08:50:44.842Z,92.00
2017-10-24T08:51:49.802Z,92.10
2017-10-24T08:52:53.948Z,92.00
2017-10-24T08:53:58.243Z,92.00
2017-10-24T08:55:02.862Z,91.90
2017-10-24T08:56:07.131Z,92.00
2017-10-24T08:57:11.309Z,92.20
2017-10-24T08:58:16.217Z,92.20
2017-10-24T08:59:21.198Z,91.80
2017-10-24T09:00:26.203Z,91.80
2017-10-24T09:01:30.687Z,91.80
2017-10-24T09:02:34.678Z,91.90
2017-10-24T09:03:39.506Z,92.00
2017-10-24T09:04:44.331Z,91.80
2017-10-24T09:05:57.293Z,91.70
2017-10-24T09:07:01.663Z,91.70
2017-10-24T09:08:08.854Z,91.80
2017-10-24T09:09:18.015Z,91.70
2017-10-24T09:10:23.169Z,91.80
2017-10-24T09:11:43.104Z,91.80
2017-10-24T09:12:47.526Z,91.80
2017-10-24T09:13:57.461Z,91.90
2017-10-24T09:15:01.616Z,91.80
2017-10-24T09:16:14.660Z,91.60
2017-10-24T09:17:27.185Z,91.50
2017-10-24T09:18:40.556Z,91.20
2017-10-24T09:19:50.937Z,91.20
2017-10-24T09:21:03.923Z,90.90
2017-10-24T09:22:16.807Z,91.00
2017-10-24T09:23:20.804Z,91.10
2017-10-24T09:24:24.951Z,91.10
2017-10-24T09:25:29.230Z,90.90
2017-10-24T09:26:35.738Z,90.90
2017-10-24T09:27:39.820Z,90.80
2017-10-24T09:28:43.858Z,90.90
2017-10-24T09:29:48.716Z,91.00
2017-10-24T09:31:01.937Z,91.30
2017-10-24T09:32:06.142Z,91.00
2017-10-24T09:33:10.447Z,90.90
2017-10-24T09:34:15.437Z,90.90
2017-10-24T09:35:19.730Z,90.90
2017-10-24T09:36:26.252Z,91.10
2017-10-24T09:37:30.485Z,91.10
2017-10-24T09:38:35.453Z,90.90
2017-10-24T09:40:01.287Z,90.90
2017-10-24T09:41:10.895Z,90.90
2017-10-24T09:42:15.137Z,90.80
2017-10-24T09:43:19.292Z,90.50
2017-10-24T09:44:24.196Z,90.50
2017-10-24T09:45:29.039Z,90.20
2017-10-24T09:46:33.925Z,90.20
2017-10-24T09:47:38.733Z,90.10
2017-10-24T09:48:42.807Z,90.10
2017-10-24T09:49:55.785Z,90.00
2017-10-24T09:51:12.323Z,90.00
2017-10-24T09:52:16.377Z,90.00
2017-10-24T09:53:20.465Z,90.00
2017-10-24T09:54:24.553Z,90.20
2017-10-24T09:55:29.336Z,89.90
2017-10-24T09:58:21.187Z,89.70
2017-10-24T09:59:34.387Z,90.00
2017-10-24T10:00:38.453Z,89.20
2017-10-24T10:01:45.543Z,89.20
2017-10-24T10:02:49.642Z,89.50
2017-10-24T10:04:01.771Z,89.40
2017-10-24T10:05:06.259Z,89.30
2017-10-24T10:06:20.303Z,89.90
2017-10-24T10:07:24.466Z,89.60
2017-10-24T10:08:28.523Z,89.40
2017-10-24T10:09:32.540Z,88.70
2017-10-24T10:10:38.668Z,88.80
2017-10-24T10:11:44.500Z,88.10
2017-10-24T10:12:49.287Z,88.40
2017-10-24T10:13:53.292Z,88.40
2017-10-24T10:14:57.425Z,87.90
2017-10-24T10:16:02.410Z,88.40
2017-10-24T10:17:06.677Z,87.70
2017-10-24T10:18:10.700Z,87.70
2017-10-24T10:19:14.919Z,87.40
2017-10-24T10:20:18.888Z,86.70
2017-10-24T10:21:23.699Z,86.30
2017-10-24T10:22:28.482Z,86.70
2017-10-24T10:23:33.320Z,86.80
2017-10-24T10:24:37.543Z,86.80
2017-10-24T10:25:44.034Z,87.10
2017-10-24T10:26:48.277Z,87.00
2017-10-24T10:27:52.643Z,86.60
2017-10-24T10:29:00.447Z,86.50
2017-10-24T10:30:04.701Z,86.10
2017-10-24T10:31:09.691Z,86.00
2017-10-24T10:32:13.906Z,85.90
2017-10-24T10:33:18.813Z,85.50
2017-10-24T10:34:22.855Z,85.50
2017-10-24T10:35:27.154Z,85.80
2017-10-24T10:36:31.640Z,85.70
2017-10-24T10:37:35.669Z,86.00
2017-10-24T10:38:39.844Z,86.30
2017-10-24T10:39:54.801Z,85.60
2017-10-24T10:40:59.700Z,86.00
2017-10-24T10:42:04.118Z,86.00
2017-10-24T10:43:08.107Z,85.80
2017-10-24T10:44:12.215Z,86.10
2017-10-24T10:45:16.311Z,86.20
2017-10-24T10:46:20.328Z,86.00
2017-10-24T10:47:24.465Z,86.20
2017-10-24T10:48:28.740Z,86.40
2017-10-24T10:49:32.790Z,86.50
2017-10-24T10:50:37.667Z,86.40
2017-10-24T10:51:41.762Z,86.40
2017-10-24T10:52:45.787Z,86.70
2017-10-24T10:53:49.926Z,86.70
2017-10-24T10:54:54.087Z,86.40
2017-10-24T10:55:58.179Z,85.90
2017-10-24T10:57:03.318Z,85.70
2017-10-24T10:58:07.592Z,85.70
2017-10-24T10:59:12.527Z,85.30
2017-10-24T11:00:16.713Z,85.30
2017-10-24T11:01:21.490Z,85.90
2017-10-24T11:02:26.414Z,85.00
2017-10-24T11:03:31.459Z,84.80
2017-10-24T11:04:35.822Z,84.80
2017-10-24T11:05:39.965Z,84.90
2017-10-24T11:06:45.048Z,85.00
2017-10-24T11:07:49.352Z,85.00
2017-10-24T11:08:53.476Z,84.70
2017-10-24T11:09:58.438Z,83.70
2017-10-24T11:11:02.783Z,83.70
2017-10-24T11:12:06.823Z,83.50
2017-10-24T11:13:11.658Z,83.20
2017-10-24T11:14:16.010Z,83.20
2017-10-24T11:15:20.087Z,83.20
2017-10-24T11:16:24.184Z,83.10
2017-10-24T11:17:28.544Z,82.70
2017-10-24T11:18:32.714Z,82.00
2017-10-24T11:19:36.919Z,81.60
2017-10-24T11:20:41.174Z,81.80
2017-10-24T11:21:45.973Z,81.40
2017-10-24T11:22:50.037Z,81.40
2017-10-24T11:23:54.062Z,81.20
2017-10-24T11:24:58.119Z,81.90
2017-10-24T11:26:02.167Z,82.20
2017-10-24T11:27:06.659Z,82.30
2017-10-24T11:28:10.725Z,81.90
2017-10-24T11:32:25.039Z,81.50
2017-10-24T11:33:29.374Z,81.60
2017-10-24T11:34:34.220Z,81.20
2017-10-24T11:35:38.340Z,81.20
2017-10-24T11:36:42.372Z,81.20
2017-10-24T11:37:46.464Z,81.20
2017-10-24T11:38:50.537Z,81.10
2017-10-24T11:39:54.563Z,80.80
2017-10-24T11:40:58.643Z,81.10
2017-10-24T11:42:02.703Z,81.00
2017-10-24T11:43:07.501Z,81.00
2017-10-24T11:44:11.519Z,81.00
2017-10-24T11:45:16.519Z,81.10
2017-10-24T11:46:21.593Z,81.00
2017-10-24T11:47:26.439Z,81.10
2017-10-24T11:48:30.597Z,81.10
2017-10-24T11:49:35.749Z,81.10
2017-10-24T11:50:40.102Z,81.10
2017-10-24T11:51:44.244Z,81.20
2017-10-24T11:52:49.147Z,81.50
2017-10-24T11:53:54.093Z,81.50
2017-10-24T11:54:59.728Z,81.80
2017-10-24T11:56:04.819Z,81.50
2017-10-24T11:57:09.462Z,81.50
2017-10-24T11:58:14.516Z,81.60
2017-10-24T11:59:18.782Z,81.60
2017-10-24T12:00:23.836Z,81.70
2017-10-24T12:01:28.015Z,81.70
2017-10-24T12:02:32.796Z,81.50
2017-10-24T12:03:37.102Z,81.60
2017-10-24T12:04:41.420Z,81.50
2017-10-24T12:05:46.017Z,81.50
2017-10-24T12:06:50.188Z,81.80
2017-10-24T12:07:54.437Z,81.90
2017-10-24T12:08:58.922Z,82.00
2017-10-24T12:10:03.107Z,82.10
2017-10-24T12:11:07.289Z,82.10
2017-10-24T12:12:12.201Z,83.00
2017-10-24T12:13:16.619Z,82.70
2017-10-24T12:14:21.112Z,82.60
2017-10-24T12:15:26.496Z,83.70
2017-10-24T12:16:30.849Z,83.70
2017-10-24T12:17:35.131Z,84.20
2017-10-24T12:18:39.442Z,84.40
2017-10-24T12:19:43.634Z,83.90
2017-10-24T12:20:48.107Z,83.80
2017-10-24T12:21:53.474Z,84.50
2017-10-24T12:22:57.672Z,84.50
2017-10-24T12:24:01.819Z,85.00
2017-10-24T12:25:05.986Z,85.00
2017-10-24T12:26:10.948Z,85.90
2017-10-24T12:27:15.067Z,85.90
2017-10-24T12:28:20.166Z,86.90
2017-10-24T12:29:24.243Z,86.90
2017-10-24T12:30:28.328Z,87.20
2017-10-24T12:31:32.501Z,87.60
2017-10-24T12:32:37.526Z,88.10
2017-10-24T12:33:42.574Z,88.80
2017-10-24T12:34:46.786Z,88.60
2017-10-24T12:35:51.075Z,88.80
2017-10-24T12:36:56.085Z,89.00
2017-10-24T12:38:00.347Z,89.00
2017-10-24T12:39:05.921Z,88.70
2017-10-24T12:40:11.033Z,89.10
2017-10-24T12:41:16.165Z,89.10
2017-10-24T12:42:21.366Z,88.80
2017-10-24T12:43:25.685Z,88.80
2017-10-24T12:44:30.145Z,88.90
2017-10-24T12:45:37.370Z,88.60
2017-10-24T12:47:13.152Z,88.80
2017-10-24T12:48:17.405Z,88.80
2017-10-24T12:49:21.568Z,89.00
2017-10-24T12:50:26.534Z,89.70
2017-10-24T12:51:31.727Z,90.00
2017-10-24T12:52:36.392Z,90.00
2017-10-24T12:53:40.637Z,90.20
2017-10-24T12:54:45.776Z,90.40
2017-10-24T12:55:49.998Z,90.40
2017-10-24T12:56:54.394Z,90.40
2017-10-24T12:57:58.599Z,90.30
2017-10-24T12:59:02.736Z,90.40
2017-10-24T13:00:06.839Z,90.50
2017-10-24T13:01:10.975Z,90.50
2017-10-24T13:02:15.517Z,90.60
2017-10-24T13:03:19.614Z,90.70
2017-10-24T13:04:24.828Z,90.60
2017-10-24T13:05:29.033Z,90.60
2017-10-24T13:06:33.943Z,90.80
2017-10-24T13:07:52.588Z,90.80
2017-10-24T13:08:56.673Z,90.70
2017-10-24T13:10:01.097Z,91.00
2017-10-24T13:11:05.187Z,90.90
2017-10-24T13:12:09.265Z,91.00
2017-10-24T13:13:13.426Z,91.10
2017-10-24T13:14:18.239Z,91.30
2017-10-24T13:15:23.173Z,91.20
2017-10-24T13:16:27.999Z,91.30
2017-10-24T13:17:32.120Z,91.30
2017-10-24T13:18:36.234Z,91.30
2017-10-24T13:19:40.285Z,91.50
2017-10-24T13:20:45.582Z,91.40
2017-10-24T13:21:53.522Z,91.40
2017-10-24T13:22:57.799Z,91.60
2017-10-24T13:24:02.722Z,91.70
2017-10-24T13:25:06.762Z,91.70
2017-10-24T13:26:11.169Z,91.80
2017-10-24T13:27:15.383Z,91.90
2017-10-24T13:28:19.883Z,92.00
2017-10-24T13:29:24.972Z,92.50
2017-10-24T13:30:29.142Z,92.50
2017-10-24T13:31:34.552Z,92.80
2017-10-24T13:32:38.879Z,92.80
2017-10-24T13:33:43.283Z,93.00
2017-10-24T13:34:47.777Z,93.00
2017-10-24T13:35:51.917Z,93.20
2017-10-24T13:36:56.050Z,93.40
2017-10-24T13:38:00.098Z,93.40
2017-10-24T13:39:04.551Z,93.30
2017-10-24T13:40:08.562Z,93.20
2017-10-24T13:41:12.616Z,93.50
2017-10-24T13:42:16.972Z,93.30
2017-10-24T13:43:21.079Z,93.40
2017-10-24T13:44:26.325Z,93.10
2017-10-24T13:45:32.052Z,93.10
2017-10-24T13:46:37.088Z,93.10
2017-10-24T13:47:42.141Z,93.30
2017-10-24T13:48:46.526Z,93.30
2017-10-24T13:49:51.118Z,93.10
2017-10-24T13:50:58.652Z,93.10
2017-10-24T13:52:31.763Z,93.20
2017-10-24T13:53:36.147Z,93.30
2017-10-24T13:54:40.253Z,93.40
2017-10-24T13:55:45.222Z,93.50
2017-10-24T13:56:50.163Z,93.70
2017-10-24T13:57:54.513Z,93.70
2017-10-24T13:58:58.575Z,93.90
2017-10-24T14:00:02.898Z,94.00
2017-10-24T14:01:07.926Z,93.80
2017-10-24T14:02:12.794Z,93.80